Terminal Aerodrome Forecast
Issued by NWS

Home | Current Version | Previous Version | Text Only | Print | Product List | Glossary On
Versions: 1 2 3 4 5 6 7 8 9 10 11 12 13 14 15 16 17 18
644
FTUS42 KMLB 171123
TAFSUA
TAF
KSUA 171123Z 1712/1812 VRB03KT P6SM SCT025
     FM171500 03008KT P6SM VCSH SCT025 BKN250
      TEMPO 1715/1719 BKN025
     FM180000 03007KT P6SM VCSH SCT035 BKN050 OVC100=

USA.gov is the U.S. government's official web portal to all federal, state and local government web resources and services.